sensor_id;sensor_type;location;lat;lon;timestamp;P1;durP1;ratioP1;P2;durP2;ratioP2
65275;SDS011;51875;49.994;14.052;2022-11-15T00:01:14;68.72;;;14.25;;
65275;SDS011;51875;49.994;14.052;2022-11-15T00:02:32;72.53;;;15.25;;
65275;SDS011;51875;49.994;14.052;2022-11-15T00:03:50;49.97;;;13.85;;
65275;SDS011;51875;49.994;14.052;2022-11-15T00:05:07;123.63;;;17.50;;
65275;SDS011;51875;49.994;14.052;2022-11-15T00:06:22;59.00;;;13.82;;
65275;SDS011;51875;49.994;14.052;2022-11-15T00:07:38;71.32;;;14.90;;
65275;SDS011;51875;49.994;14.052;2022-11-15T00:08:54;96.80;;;15.82;;
65275;SDS011;51875;49.994;14.052;2022-11-15T00:10:10;84.35;;;16.20;;
65275;SDS011;51875;49.994;14.052;2022-11-15T00:11:26;131.77;;;17.58;;
65275;SDS011;51875;49.994;14.052;2022-11-15T00:12:42;57.00;;;14.73;;
65275;SDS011;51875;49.994;14.052;2022-11-15T00:13:58;93.40;;;15.73;;
65275;SDS011;51875;49.994;14.052;2022-11-15T00:15:13;73.55;;;16.45;;
65275;SDS011;51875;49.994;14.052;2022-11-15T00:16:29;74.55;;;14.45;;
65275;SDS011;51875;49.994;14.052;2022-11-15T00:17:47;74.78;;;15.82;;
65275;SDS011;51875;49.994;14.052;2022-11-15T00:19:04;102.25;;;16.05;;
65275;SDS011;51875;49.994;14.052;2022-11-15T00:20:19;85.57;;;14.95;;
65275;SDS011;51875;49.994;14.052;2022-11-15T00:21:35;75.57;;;14.70;;
65275;SDS011;51875;49.994;14.052;2022-11-15T00:22:50;83.00;;;15.32;;
65275;SDS011;51875;49.994;14.052;2022-11-15T00:24:06;117.55;;;15.63;;
65275;SDS011;51875;49.994;14.052;2022-11-15T00:25:22;86.18;;;15.85;;
65275;SDS011;51875;49.994;14.052;2022-11-15T00:26:37;77.78;;;16.40;;
65275;SDS011;51875;49.994;14.052;2022-11-15T00:27:56;77.25;;;14.70;;
65275;SDS011;51875;49.994;14.052;2022-11-15T00:29:12;83.45;;;15.43;;
65275;SDS011;51875;49.994;14.052;2022-11-15T00:30:28;57.55;;;12.75;;
65275;SDS011;51875;49.994;14.052;2022-11-15T00:31:43;70.97;;;16.25;;
65275;SDS011;51875;49.994;14.052;2022-11-15T00:33:28;62.05;;;13.93;;
65275;SDS011;51875;49.994;14.052;2022-11-15T00:35:09;62.55;;;13.95;;
65275;SDS011;51875;49.994;14.052;2022-11-15T00:36:25;74.90;;;15.80;;
65275;SDS011;51875;49.994;14.052;2022-11-15T00:37:40;79.80;;;15.52;;
65275;SDS011;51875;49.994;14.052;2022-11-15T00:38:56;56.40;;;13.25;;
65275;SDS011;51875;49.994;14.052;2022-11-15T00:40:11;73.93;;;15.35;;
65275;SDS011;51875;49.994;14.052;2022-11-15T00:41:30;95.10;;;18.23;;
65275;SDS011;51875;49.994;14.052;2022-11-15T00:42:46;49.20;;;13.13;;
65275;SDS011;51875;49.994;14.052;2022-11-15T00:44:01;92.32;;;15.80;;
65275;SDS011;51875;49.994;14.052;2022-11-15T00:45:17;69.35;;;13.82;;
65275;SDS011;51875;49.994;14.052;2022-11-15T00:46:32;69.10;;;14.15;;
65275;SDS011;51875;49.994;14.052;2022-11-15T00:47:48;74.75;;;15.88;;
65275;SDS011;51875;49.994;14.052;2022-11-15T00:49:03;79.97;;;15.13;;
65275;SDS011;51875;49.994;14.052;2022-11-15T00:50:19;119.00;;;15.77;;
65275;SDS011;51875;49.994;14.052;2022-11-15T00:51:35;64.13;;;14.45;;
65275;SDS011;51875;49.994;14.052;2022-11-15T00:52:50;75.63;;;15.93;;
65275;SDS011;51875;49.994;14.052;2022-11-15T00:54:06;53.90;;;11.65;;
65275;SDS011;51875;49.994;14.052;2022-11-15T00:55:21;88.28;;;17.73;;
65275;SDS011;51875;49.994;14.052;2022-11-15T00:56:37;72.63;;;14.98;;
65275;SDS011;51875;49.994;14.052;2022-11-15T00:57:53;83.22;;;13.85;;
65275;SDS011;51875;49.994;14.052;2022-11-15T00:59:08;106.63;;;18.05;;
65275;SDS011;51875;49.994;14.052;2022-11-15T01:00:24;87.53;;;15.82;;
65275;SDS011;51875;49.994;14.052;2022-11-15T01:01:39;92.68;;;16.13;;
65275;SDS011;51875;49.994;14.052;2022-11-15T01:02:55;78.22;;;14.55;;
65275;SDS011;51875;49.994;14.052;2022-11-15T01:04:10;123.72;;;17.10;;
65275;SDS011;51875;49.994;14.052;2022-11-15T01:05:26;113.65;;;17.13;;
65275;SDS011;51875;49.994;14.052;2022-11-15T01:06:42;136.40;;;17.88;;
65275;SDS011;51875;49.994;14.052;2022-11-15T01:07:58;97.50;;;16.95;;
65275;SDS011;51875;49.994;14.052;2022-11-15T01:09:13;84.70;;;15.18;;
65275;SDS011;51875;49.994;14.052;2022-11-15T01:10:29;72.82;;;14.45;;
65275;SDS011;51875;49.994;14.052;2022-11-15T01:11:45;34.70;;;13.88;;
65275;SDS011;51875;49.994;14.052;2022-11-15T01:13:01;35.25;;;13.80;;
65275;SDS011;51875;49.994;14.052;2022-11-15T01:14:16;128.30;;;17.75;;
65275;SDS011;51875;49.994;14.052;2022-11-15T01:15:31;59.50;;;14.63;;
65275;SDS011;51875;49.994;14.052;2022-11-15T01:16:47;111.88;;;16.42;;
65275;SDS011;51875;49.994;14.052;2022-11-15T01:18:03;112.82;;;15.95;;
65275;SDS011;51875;49.994;14.052;2022-11-15T01:19:18;114.43;;;16.05;;
65275;SDS011;51875;49.994;14.052;2022-11-15T01:20:34;75.60;;;13.52;;
65275;SDS011;51875;49.994;14.052;2022-11-15T01:21:54;50.55;;;14.32;;
65275;SDS011;51875;49.994;14.052;2022-11-15T01:23:09;72.03;;;14.07;;
65275;SDS011;51875;49.994;14.052;2022-11-15T01:24:26;60.10;;;14.40;;
65275;SDS011;51875;49.994;14.052;2022-11-15T01:25:42;125.45;;;18.35;;
65275;SDS011;51875;49.994;14.052;2022-11-15T01:26:58;122.15;;;18.33;;
65275;SDS011;51875;49.994;14.052;2022-11-15T01:28:13;165.20;;;21.42;;
65275;SDS011;51875;49.994;14.052;2022-11-15T01:29:29;44.83;;;13.30;;
65275;SDS011;51875;49.994;14.052;2022-11-15T01:30:44;39.20;;;13.60;;
65275;SDS011;51875;49.994;14.052;2022-11-15T01:32:00;43.13;;;13.02;;
65275;SDS011;51875;49.994;14.052;2022-11-15T01:33:16;37.72;;;13.90;;
65275;SDS011;51875;49.994;14.052;2022-11-15T01:34:31;40.97;;;14.57;;
65275;SDS011;51875;49.994;14.052;2022-11-15T01:35:47;40.70;;;14.13;;
65275;SDS011;51875;49.994;14.052;2022-11-15T01:37:03;39.53;;;14.15;;
65275;SDS011;51875;49.994;14.052;2022-11-15T01:38:18;44.38;;;14.55;;
65275;SDS011;51875;49.994;14.052;2022-11-15T01:39:34;48.75;;;14.32;;
65275;SDS011;51875;49.994;14.052;2022-11-15T01:40:49;47.47;;;14.10;;
65275;SDS011;51875;49.994;14.052;2022-11-15T01:42:05;118.90;;;18.52;;
65275;SDS011;51875;49.994;14.052;2022-11-15T01:43:25;105.40;;;16.00;;
65275;SDS011;51875;49.994;14.052;2022-11-15T01:46:03;83.90;;;15.43;;
65275;SDS011;51875;49.994;14.052;2022-11-15T01:47:39;45.47;;;14.35;;
65275;SDS011;51875;49.994;14.052;2022-11-15T01:49:00;32.30;;;12.27;;
65275;SDS011;51875;49.994;14.052;2022-11-15T01:50:22;46.85;;;14.30;;
65275;SDS011;51875;49.994;14.052;2022-11-15T01:51:47;48.13;;;14.98;;
65275;SDS011;51875;49.994;14.052;2022-11-15T01:53:03;44.38;;;14.70;;
65275;SDS011;51875;49.994;14.052;2022-11-15T01:54:19;53.70;;;14.43;;
65275;SDS011;51875;49.994;14.052;2022-11-15T01:55:36;42.28;;;13.65;;
65275;SDS011;51875;49.994;14.052;2022-11-15T01:56:53;78.85;;;16.60;;
65275;SDS011;51875;49.994;14.052;2022-11-15T01:58:14;73.95;;;15.98;;
65275;SDS011;51875;49.994;14.052;2022-11-15T01:59:29;79.97;;;15.38;;
65275;SDS011;51875;49.994;14.052;2022-11-15T02:00:45;67.57;;;15.10;;
65275;SDS011;51875;49.994;14.052;2022-11-15T02:02:02;57.47;;;13.18;;
65275;SDS011;51875;49.994;14.052;2022-11-15T02:03:19;50.47;;;14.20;;
65275;SDS011;51875;49.994;14.052;2022-11-15T02:04:42;93.03;;;14.70;;
65275;SDS011;51875;49.994;14.052;2022-11-15T02:05:59;116.00;;;15.85;;
65275;SDS011;51875;49.994;14.052;2022-11-15T02:07:16;99.10;;;15.57;;
65275;SDS011;51875;49.994;14.052;2022-11-15T02:08:33;138.07;;;16.88;;
65275;SDS011;51875;49.994;14.052;2022-11-15T02:09:49;69.72;;;12.32;;
65275;SDS011;51875;49.994;14.052;2022-11-15T02:11:08;110.53;;;15.70;;
65275;SDS011;51875;49.994;14.052;2022-11-15T02:12:24;85.35;;;15.10;;
65275;SDS011;51875;49.994;14.052;2022-11-15T02:13:40;80.28;;;13.23;;
65275;SDS011;51875;49.994;14.052;2022-11-15T02:14:57;97.63;;;16.88;;
65275;SDS011;51875;49.994;14.052;2022-11-15T02:16:24;99.88;;;18.40;;
65275;SDS011;51875;49.994;14.052;2022-11-15T02:19:28;95.40;;;14.68;;
65275;SDS011;51875;49.994;14.052;2022-11-15T02:25:40;65.28;;;13.07;;
65275;SDS011;51875;49.994;14.052;2022-11-15T02:27:34;110.53;;;14.25;;
65275;SDS011;51875;49.994;14.052;2022-11-15T02:29:13;80.00;;;13.07;;
65275;SDS011;51875;49.994;14.052;2022-11-15T02:32:45;46.63;;;11.10;;
65275;SDS011;51875;49.994;14.052;2022-11-15T02:35:44;30.67;;;10.32;;
65275;SDS011;51875;49.994;14.052;2022-11-15T02:37:16;29.55;;;10.80;;
65275;SDS011;51875;49.994;14.052;2022-11-15T02:38:53;28.27;;;10.45;;
65275;SDS011;51875;49.994;14.052;2022-11-15T02:42:11;30.83;;;11.48;;
65275;SDS011;51875;49.994;14.052;2022-11-15T02:44:23;26.30;;;9.80;;
65275;SDS011;51875;49.994;14.052;2022-11-15T02:45:49;32.65;;;10.88;;
65275;SDS011;51875;49.994;14.052;2022-11-15T02:47:12;37.85;;;12.38;;
65275;SDS011;51875;49.994;14.052;2022-11-15T02:48:31;56.90;;;14.45;;
65275;SDS011;51875;49.994;14.052;2022-11-15T02:49:49;51.08;;;13.73;;
65275;SDS011;51875;49.994;14.052;2022-11-15T02:51:09;35.58;;;13.40;;
65275;SDS011;51875;49.994;14.052;2022-11-15T02:52:25;36.17;;;13.20;;
65275;SDS011;51875;49.994;14.052;2022-11-15T02:53:41;42.55;;;13.57;;
65275;SDS011;51875;49.994;14.052;2022-11-15T02:54:58;52.92;;;14.65;;
65275;SDS011;51875;49.994;14.052;2022-11-15T02:56:14;41.45;;;13.35;;
65275;SDS011;51875;49.994;14.052;2022-11-15T02:57:36;44.83;;;13.15;;
65275;SDS011;51875;49.994;14.052;2022-11-15T02:59:10;49.20;;;13.43;;
65275;SDS011;51875;49.994;14.052;2022-11-15T03:00:35;34.72;;;14.10;;
65275;SDS011;51875;49.994;14.052;2022-11-15T03:02:04;38.67;;;13.05;;
65275;SDS011;51875;49.994;14.052;2022-11-15T03:05:20;51.08;;;13.65;;
65275;SDS011;51875;49.994;14.052;2022-11-15T03:07:01;41.65;;;11.75;;
65275;SDS011;51875;49.994;14.052;2022-11-15T03:10:05;30.95;;;11.55;;
65275;SDS011;51875;49.994;14.052;2022-11-15T03:11:27;37.28;;;12.50;;
65275;SDS011;51875;49.994;14.052;2022-11-15T03:15:38;32.33;;;11.88;;
65275;SDS011;51875;49.994;14.052;2022-11-15T03:17:07;33.85;;;12.40;;
65275;SDS011;51875;49.994;14.052;2022-11-15T03:19:10;33.85;;;11.88;;
65275;SDS011;51875;49.994;14.052;2022-11-15T03:20:07;36.40;;;11.55;;
65275;SDS011;51875;49.994;14.052;2022-11-15T03:21:24;37.45;;;12.13;;
65275;SDS011;51875;49.994;14.052;2022-11-15T03:22:44;37.17;;;13.65;;
65275;SDS011;51875;49.994;14.052;2022-11-15T03:24:03;32.50;;;12.48;;
65275;SDS011;51875;49.994;14.052;2022-11-15T03:25:23;37.58;;;13.10;;
65275;SDS011;51875;49.994;14.052;2022-11-15T03:26:40;34.80;;;13.23;;
65275;SDS011;51875;49.994;14.052;2022-11-15T03:27:59;47.65;;;13.55;;
65275;SDS011;51875;49.994;14.052;2022-11-15T03:30:39;31.67;;;11.25;;
65275;SDS011;51875;49.994;14.052;2022-11-15T03:31:56;28.00;;;11.38;;
65275;SDS011;51875;49.994;14.052;2022-11-15T03:33:15;27.70;;;11.82;;
65275;SDS011;51875;49.994;14.052;2022-11-15T03:34:39;35.65;;;12.90;;
65275;SDS011;51875;49.994;14.052;2022-11-15T03:35:59;36.63;;;12.23;;
65275;SDS011;51875;49.994;14.052;2022-11-15T03:37:15;31.27;;;12.85;;
65275;SDS011;51875;49.994;14.052;2022-11-15T03:38:32;30.83;;;12.27;;
65275;SDS011;51875;49.994;14.052;2022-11-15T03:39:50;22.73;;;10.40;;
65275;SDS011;51875;49.994;14.052;2022-11-15T03:41:08;25.95;;;10.52;;
65275;SDS011;51875;49.994;14.052;2022-11-15T03:44:06;23.13;;;9.63;;
65275;SDS011;51875;49.994;14.052;2022-11-15T03:45:35;23.67;;;10.00;;
65275;SDS011;51875;49.994;14.052;2022-11-15T03:47:03;22.95;;;9.70;;
65275;SDS011;51875;49.994;14.052;2022-11-15T03:48:25;20.92;;;8.73;;
65275;SDS011;51875;49.994;14.052;2022-11-15T03:49:46;21.53;;;9.17;;
65275;SDS011;51875;49.994;14.052;2022-11-15T03:51:07;20.10;;;10.43;;
65275;SDS011;51875;49.994;14.052;2022-11-15T03:52:23;23.48;;;9.15;;
65275;SDS011;51875;49.994;14.052;2022-11-15T03:53:40;28.38;;;9.50;;
65275;SDS011;51875;49.994;14.052;2022-11-15T03:54:56;23.17;;;9.95;;
65275;SDS011;51875;49.994;14.052;2022-11-15T03:56:12;21.45;;;9.20;;
65275;SDS011;51875;49.994;14.052;2022-11-15T03:57:28;24.40;;;9.63;;
65275;SDS011;51875;49.994;14.052;2022-11-15T03:58:43;21.65;;;10.23;;
65275;SDS011;51875;49.994;14.052;2022-11-15T03:59:59;23.67;;;9.90;;
65275;SDS011;51875;49.994;14.052;2022-11-15T04:01:15;28.95;;;9.93;;
65275;SDS011;51875;49.994;14.052;2022-11-15T04:02:33;25.48;;;9.85;;
65275;SDS011;51875;49.994;14.052;2022-11-15T04:03:48;23.52;;;10.07;;
65275;SDS011;51875;49.994;14.052;2022-11-15T04:05:04;24.75;;;10.55;;
65275;SDS011;51875;49.994;14.052;2022-11-15T04:06:20;23.00;;;10.43;;
65275;SDS011;51875;49.994;14.052;2022-11-15T04:07:35;24.48;;;10.52;;
65275;SDS011;51875;49.994;14.052;2022-11-15T04:08:51;29.15;;;10.93;;
65275;SDS011;51875;49.994;14.052;2022-11-15T04:10:07;28.92;;;10.25;;
65275;SDS011;51875;49.994;14.052;2022-11-15T04:11:25;27.65;;;11.13;;
65275;SDS011;51875;49.994;14.052;2022-11-15T04:12:42;24.63;;;10.68;;
65275;SDS011;51875;49.994;14.052;2022-11-15T04:13:59;28.85;;;11.45;;
65275;SDS011;51875;49.994;14.052;2022-11-15T04:15:15;24.75;;;10.57;;
65275;SDS011;51875;49.994;14.052;2022-11-15T04:16:33;26.55;;;10.57;;
65275;SDS011;51875;49.994;14.052;2022-11-15T04:19:09;23.35;;;9.93;;
65275;SDS011;51875;49.994;14.052;2022-11-15T04:20:43;26.40;;;10.18;;
65275;SDS011;51875;49.994;14.052;2022-11-15T04:22:17;24.10;;;10.25;;
65275;SDS011;51875;49.994;14.052;2022-11-15T04:23:51;25.33;;;10.57;;
65275;SDS011;51875;49.994;14.052;2022-11-15T04:25:06;21.90;;;10.00;;
65275;SDS011;51875;49.994;14.052;2022-11-15T04:26:22;22.75;;;10.32;;
65275;SDS011;51875;49.994;14.052;2022-11-15T04:27:38;24.55;;;10.30;;
65275;SDS011;51875;49.994;14.052;2022-11-15T04:28:54;25.92;;;10.77;;
65275;SDS011;51875;49.994;14.052;2022-11-15T04:30:28;25.75;;;11.00;;
65275;SDS011;51875;49.994;14.052;2022-11-15T04:31:44;30.85;;;11.40;;
65275;SDS011;51875;49.994;14.052;2022-11-15T04:32:59;29.15;;;10.95;;
65275;SDS011;51875;49.994;14.052;2022-11-15T04:34:15;28.70;;;11.68;;
65275;SDS011;51875;49.994;14.052;2022-11-15T04:35:31;30.45;;;11.07;;
65275;SDS011;51875;49.994;14.052;2022-11-15T04:36:47;26.40;;;10.57;;
65275;SDS011;51875;49.994;14.052;2022-11-15T04:38:21;30.90;;;11.88;;
65275;SDS011;51875;49.994;14.052;2022-11-15T04:39:37;33.75;;;11.77;;
65275;SDS011;51875;49.994;14.052;2022-11-15T04:40:52;28.30;;;11.45;;
65275;SDS011;51875;49.994;14.052;2022-11-15T04:42:08;32.90;;;12.43;;
65275;SDS011;51875;49.994;14.052;2022-11-15T04:43:25;29.50;;;11.93;;
65275;SDS011;51875;49.994;14.052;2022-11-15T04:44:40;31.10;;;11.63;;
65275;SDS011;51875;49.994;14.052;2022-11-15T04:45:56;34.35;;;11.10;;
65275;SDS011;51875;49.994;14.052;2022-11-15T04:47:11;30.02;;;11.73;;
65275;SDS011;51875;49.994;14.052;2022-11-15T04:48:27;44.60;;;18.65;;
65275;SDS011;51875;49.994;14.052;2022-11-15T04:49:43;47.63;;;20.75;;
65275;SDS011;51875;49.994;14.052;2022-11-15T04:50:59;32.13;;;14.10;;
65275;SDS011;51875;49.994;14.052;2022-11-15T04:52:14;29.27;;;12.07;;
65275;SDS011;51875;49.994;14.052;2022-11-15T04:53:30;25.58;;;11.10;;
65275;SDS011;51875;49.994;14.052;2022-11-15T04:54:45;30.35;;;11.57;;
65275;SDS011;51875;49.994;14.052;2022-11-15T04:56:01;25.73;;;10.70;;
65275;SDS011;51875;49.994;14.052;2022-11-15T04:57:17;27.40;;;10.48;;
65275;SDS011;51875;49.994;14.052;2022-11-15T04:58:32;29.42;;;11.65;;
65275;SDS011;51875;49.994;14.052;2022-11-15T04:59:49;25.77;;;10.90;;
65275;SDS011;51875;49.994;14.052;2022-11-15T05:01:07;27.60;;;10.80;;
65275;SDS011;51875;49.994;14.052;2022-11-15T05:04:02;25.52;;;10.70;;
65275;SDS011;51875;49.994;14.052;2022-11-15T05:05:36;24.33;;;9.68;;
65275;SDS011;51875;49.994;14.052;2022-11-15T05:06:52;25.17;;;10.80;;
65275;SDS011;51875;49.994;14.052;2022-11-15T05:08:08;26.85;;;10.98;;
65275;SDS011;51875;49.994;14.052;2022-11-15T05:09:23;31.65;;;11.10;;
65275;SDS011;51875;49.994;14.052;2022-11-15T05:10:39;24.48;;;10.80;;
65275;SDS011;51875;49.994;14.052;2022-11-15T05:11:55;25.48;;;10.80;;
65275;SDS011;51875;49.994;14.052;2022-11-15T05:13:10;28.70;;;11.52;;
65275;SDS011;51875;49.994;14.052;2022-11-15T05:14:26;26.88;;;10.40;;
65275;SDS011;51875;49.994;14.052;2022-11-15T05:15:41;29.88;;;11.30;;
65275;SDS011;51875;49.994;14.052;2022-11-15T05:16:57;29.88;;;10.52;;
65275;SDS011;51875;49.994;14.052;2022-11-15T05:18:12;39.45;;;12.80;;
65275;SDS011;51875;49.994;14.052;2022-11-15T05:19:28;30.05;;;10.95;;
65275;SDS011;51875;49.994;14.052;2022-11-15T05:20:44;75.25;;;13.80;;
65275;SDS011;51875;49.994;14.052;2022-11-15T05:21:59;29.45;;;12.30;;
65275;SDS011;51875;49.994;14.052;2022-11-15T05:23:15;70.70;;;13.63;;
65275;SDS011;51875;49.994;14.052;2022-11-15T05:24:30;37.88;;;11.40;;
65275;SDS011;51875;49.994;14.052;2022-11-15T05:25:46;57.40;;;14.35;;
65275;SDS011;51875;49.994;14.052;2022-11-15T05:27:02;40.97;;;10.38;;
65275;SDS011;51875;49.994;14.052;2022-11-15T05:28:17;21.98;;;9.98;;
65275;SDS011;51875;49.994;14.052;2022-11-15T05:29:33;27.25;;;9.52;;
65275;SDS011;51875;49.994;14.052;2022-11-15T05:30:48;21.20;;;10.35;;
65275;SDS011;51875;49.994;14.052;2022-11-15T05:32:05;28.17;;;10.10;;
65275;SDS011;51875;49.994;14.052;2022-11-15T05:33:21;21.92;;;9.73;;
65275;SDS011;51875;49.994;14.052;2022-11-15T05:34:37;25.55;;;10.65;;
65275;SDS011;51875;49.994;14.052;2022-11-15T05:35:54;27.95;;;9.98;;
65275;SDS011;51875;49.994;14.052;2022-11-15T05:37:15;20.08;;;9.60;;
65275;SDS011;51875;49.994;14.052;2022-11-15T05:38:31;33.10;;;10.27;;
65275;SDS011;51875;49.994;14.052;2022-11-15T05:39:47;28.75;;;10.02;;
65275;SDS011;51875;49.994;14.052;2022-11-15T05:41:03;34.20;;;9.60;;
65275;SDS011;51875;49.994;14.052;2022-11-15T05:42:20;34.53;;;9.93;;
65275;SDS011;51875;49.994;14.052;2022-11-15T05:43:35;32.30;;;9.65;;
65275;SDS011;51875;49.994;14.052;2022-11-15T05:44:54;27.98;;;10.40;;
65275;SDS011;51875;49.994;14.052;2022-11-15T05:46:10;25.33;;;9.95;;
65275;SDS011;51875;49.994;14.052;2022-11-15T05:47:27;25.33;;;10.10;;
65275;SDS011;51875;49.994;14.052;2022-11-15T05:48:48;21.25;;;9.35;;
65275;SDS011;51875;49.994;14.052;2022-11-15T05:50:07;22.17;;;9.43;;
65275;SDS011;51875;49.994;14.052;2022-11-15T05:51:26;28.42;;;9.25;;
65275;SDS011;51875;49.994;14.052;2022-11-15T05:52:43;30.90;;;10.50;;
65275;SDS011;51875;49.994;14.052;2022-11-15T05:54:01;20.30;;;9.63;;
65275;SDS011;51875;49.994;14.052;2022-11-15T05:55:17;20.80;;;9.80;;
65275;SDS011;51875;49.994;14.052;2022-11-15T05:56:33;26.38;;;10.60;;
65275;SDS011;51875;49.994;14.052;2022-11-15T05:57:49;19.58;;;9.60;;
65275;SDS011;51875;49.994;14.052;2022-11-15T05:59:04;23.60;;;10.75;;
65275;SDS011;51875;49.994;14.052;2022-11-15T06:00:22;50.55;;;11.18;;
65275;SDS011;51875;49.994;14.052;2022-11-15T06:01:38;121.50;;;12.65;;
65275;SDS011;51875;49.994;14.052;2022-11-15T06:02:54;44.20;;;10.93;;
65275;SDS011;51875;49.994;14.052;2022-11-15T06:04:10;95.78;;;14.25;;
65275;SDS011;51875;49.994;14.052;2022-11-15T06:05:26;49.92;;;10.98;;
65275;SDS011;51875;49.994;14.052;2022-11-15T06:06:41;39.70;;;10.82;;
65275;SDS011;51875;49.994;14.052;2022-11-15T06:07:58;64.85;;;11.07;;
65275;SDS011;51875;49.994;14.052;2022-11-15T06:09:14;88.10;;;11.82;;
65275;SDS011;51875;49.994;14.052;2022-11-15T06:10:29;41.58;;;9.10;;
65275;SDS011;51875;49.994;14.052;2022-11-15T06:11:45;22.13;;;9.50;;
65275;SDS011;51875;49.994;14.052;2022-11-15T06:13:01;45.92;;;9.82;;
65275;SDS011;51875;49.994;14.052;2022-11-15T06:14:18;57.17;;;10.35;;
65275;SDS011;51875;49.994;14.052;2022-11-15T06:15:34;88.93;;;12.10;;
65275;SDS011;51875;49.994;14.052;2022-11-15T06:16:50;29.25;;;8.65;;
65275;SDS011;51875;49.994;14.052;2022-11-15T06:18:05;36.45;;;7.82;;
65275;SDS011;51875;49.994;14.052;2022-11-15T06:19:21;32.88;;;8.35;;
65275;SDS011;51875;49.994;14.052;2022-11-15T06:20:37;33.55;;;8.93;;
65275;SDS011;51875;49.994;14.052;2022-11-15T06:21:52;32.38;;;8.52;;
65275;SDS011;51875;49.994;14.052;2022-11-15T06:23:08;32.55;;;8.25;;
65275;SDS011;51875;49.994;14.052;2022-11-15T06:24:24;27.45;;;8.93;;
65275;SDS011;51875;49.994;14.052;2022-11-15T06:25:39;30.88;;;8.88;;
65275;SDS011;51875;49.994;14.052;2022-11-15T06:26:55;33.05;;;7.93;;
65275;SDS011;51875;49.994;14.052;2022-11-15T06:28:11;19.85;;;7.78;;
65275;SDS011;51875;49.994;14.052;2022-11-15T06:29:26;67.28;;;9.55;;
65275;SDS011;51875;49.994;14.052;2022-11-15T06:30:42;21.13;;;8.13;;
65275;SDS011;51875;49.994;14.052;2022-11-15T06:31:57;35.92;;;9.98;;
65275;SDS011;51875;49.994;14.052;2022-11-15T06:33:13;77.15;;;10.88;;
65275;SDS011;51875;49.994;14.052;2022-11-15T06:34:28;34.80;;;8.63;;
65275;SDS011;51875;49.994;14.052;2022-11-15T06:35:44;30.10;;;8.88;;
65275;SDS011;51875;49.994;14.052;2022-11-15T06:37:00;47.22;;;10.77;;
65275;SDS011;51875;49.994;14.052;2022-11-15T06:38:15;40.15;;;10.55;;
65275;SDS011;51875;49.994;14.052;2022-11-15T06:39:31;40.80;;;8.88;;
65275;SDS011;51875;49.994;14.052;2022-11-15T06:40:46;43.42;;;10.10;;
65275;SDS011;51875;49.994;14.052;2022-11-15T06:42:02;36.13;;;8.75;;
65275;SDS011;51875;49.994;14.052;2022-11-15T06:43:17;27.60;;;8.98;;
65275;SDS011;51875;49.994;14.052;2022-11-15T06:44:33;28.63;;;8.75;;
65275;SDS011;51875;49.994;14.052;2022-11-15T06:45:49;24.25;;;9.15;;
65275;SDS011;51875;49.994;14.052;2022-11-15T06:47:04;40.00;;;9.60;;
65275;SDS011;51875;49.994;14.052;2022-11-15T06:48:20;17.90;;;8.90;;
65275;SDS011;51875;49.994;14.052;2022-11-15T06:49:35;94.32;;;9.15;;
65275;SDS011;51875;49.994;14.052;2022-11-15T06:50:51;77.40;;;10.55;;
65275;SDS011;51875;49.994;14.052;2022-11-15T06:52:08;113.60;;;12.90;;
65275;SDS011;51875;49.994;14.052;2022-11-15T06:53:23;96.00;;;10.45;;
65275;SDS011;51875;49.994;14.052;2022-11-15T06:54:40;116.65;;;13.27;;
65275;SDS011;51875;49.994;14.052;2022-11-15T06:55:59;73.03;;;9.73;;
65275;SDS011;51875;49.994;14.052;2022-11-15T06:57:16;89.53;;;10.10;;
65275;SDS011;51875;49.994;14.052;2022-11-15T06:58:31;127.40;;;14.10;;
65275;SDS011;51875;49.994;14.052;2022-11-15T06:59:47;52.63;;;9.25;;
65275;SDS011;51875;49.994;14.052;2022-11-15T07:01:07;56.83;;;11.82;;
65275;SDS011;51875;49.994;14.052;2022-11-15T07:02:24;43.60;;;9.50;;
65275;SDS011;51875;49.994;14.052;2022-11-15T07:03:40;103.18;;;12.77;;
65275;SDS011;51875;49.994;14.052;2022-11-15T07:04:57;94.72;;;13.73;;
65275;SDS011;51875;49.994;14.052;2022-11-15T07:06:12;87.80;;;12.70;;
65275;SDS011;51875;49.994;14.052;2022-11-15T07:07:28;114.43;;;14.35;;
65275;SDS011;51875;49.994;14.052;2022-11-15T07:08:43;98.80;;;11.93;;
65275;SDS011;51875;49.994;14.052;2022-11-15T07:09:59;69.05;;;8.93;;
65275;SDS011;51875;49.994;14.052;2022-11-15T07:11:14;45.88;;;9.98;;
65275;SDS011;51875;49.994;14.052;2022-11-15T07:12:30;30.95;;;8.98;;
65275;SDS011;51875;49.994;14.052;2022-11-15T07:13:46;35.38;;;8.75;;
65275;SDS011;51875;49.994;14.052;2022-11-15T07:15:01;36.67;;;9.15;;
65275;SDS011;51875;49.994;14.052;2022-11-15T07:16:17;42.47;;;8.95;;
65275;SDS011;51875;49.994;14.052;2022-11-15T07:17:33;22.02;;;9.10;;
65275;SDS011;51875;49.994;14.052;2022-11-15T07:18:48;34.75;;;9.90;;
65275;SDS011;51875;49.994;14.052;2022-11-15T07:20:04;32.90;;;9.48;;
65275;SDS011;51875;49.994;14.052;2022-11-15T07:21:20;25.10;;;8.88;;
65275;SDS011;51875;49.994;14.052;2022-11-15T07:22:36;29.77;;;11.25;;
65275;SDS011;51875;49.994;14.052;2022-11-15T07:23:51;33.80;;;10.65;;
65275;SDS011;51875;49.994;14.052;2022-11-15T07:25:07;36.45;;;10.93;;
65275;SDS011;51875;49.994;14.052;2022-11-15T07:26:23;24.77;;;9.85;;
65275;SDS011;51875;49.994;14.052;2022-11-15T07:27:39;33.20;;;10.00;;
65275;SDS011;51875;49.994;14.052;2022-11-15T07:28:55;26.05;;;10.95;;
65275;SDS011;51875;49.994;14.052;2022-11-15T07:30:10;37.38;;;10.90;;
65275;SDS011;51875;49.994;14.052;2022-11-15T07:31:27;23.90;;;10.32;;
65275;SDS011;51875;49.994;14.052;2022-11-15T07:32:42;23.65;;;9.43;;
65275;SDS011;51875;49.994;14.052;2022-11-15T07:33:58;31.10;;;9.68;;
65275;SDS011;51875;49.994;14.052;2022-11-15T07:35:13;48.65;;;10.65;;
65275;SDS011;51875;49.994;14.052;2022-11-15T07:36:29;35.00;;;9.50;;
65275;SDS011;51875;49.994;14.052;2022-11-15T07:37:52;21.55;;;9.10;;
65275;SDS011;51875;49.994;14.052;2022-11-15T07:39:14;35.60;;;10.25;;
65275;SDS011;51875;49.994;14.052;2022-11-15T07:40:30;42.88;;;10.65;;
65275;SDS011;51875;49.994;14.052;2022-11-15T07:41:46;37.47;;;9.98;;
65275;SDS011;51875;49.994;14.052;2022-11-15T07:43:06;44.38;;;12.20;;
65275;SDS011;51875;49.994;14.052;2022-11-15T07:44:23;25.20;;;9.70;;
65275;SDS011;51875;49.994;14.052;2022-11-15T07:45:42;26.92;;;9.95;;
65275;SDS011;51875;49.994;14.052;2022-11-15T07:46:58;22.85;;;9.73;;
65275;SDS011;51875;49.994;14.052;2022-11-15T07:48:14;34.00;;;9.98;;
65275;SDS011;51875;49.994;14.052;2022-11-15T07:49:30;26.27;;;9.73;;
65275;SDS011;51875;49.994;14.052;2022-11-15T07:50:45;35.05;;;9.95;;
65275;SDS011;51875;49.994;14.052;2022-11-15T07:52:01;48.40;;;13.60;;
65275;SDS011;51875;49.994;14.052;2022-11-15T07:53:16;48.08;;;12.27;;
65275;SDS011;51875;49.994;14.052;2022-11-15T07:54:32;28.33;;;9.40;;
65275;SDS011;51875;49.994;14.052;2022-11-15T07:55:47;20.60;;;9.05;;
65275;SDS011;51875;49.994;14.052;2022-11-15T07:57:03;21.60;;;8.90;;